Kezdőlap
METAR-TAF:

METAR-TAF

Repülőterek :

Bryansk, Oroszország

földrajzi szélesség: 53-15N, földrajzi hosszúság: 034-19E, magasság: 217 m

Jelenlegi meteorológiai megfigyelések

A jelentés 30 perccel ezelõtt készült, 05:00 UTC
Déli szél 12 kt
Hőmérséklet 2°C
Páratartalom 87%
Légköri nyomás 1007 hPa
Látótávolság: 7000 m
Borult 700 lábon

METAR: UUBP 090500Z 18006MPS 7000 OVC007 02/00 Q1007 R16/290050 NOSIG RMK QFE737/0983

Idő: 08:30 (05:30 UTC)

Előrejelzés

A jelentés 34 perccel ezelõtt készült, 04:56 UTC
Az előrejelzés 09-én 05 óra UTC és 09-én 15 óra UTC között érvényes
Déli szél 14 kt széllökések: 23 kt
Látótávolság: 6000 m
Borult 700 lábon
09-én 07 óra UTC és 09-én 09 óra UTC között fokozatosan kialakuló
Látótávolság: 9000 m
Szórványos felhőzet 600 lábon
Szakadozott felhőzet 1100 lábon

TAF: UUBP 090456Z 0905/0915 17007G12MPS 6000 OVC007 BECMG 0907/0909 9000 SCT006 BKN011

Meteorológiai megfigyelések és előrejelzések több, mint 4000 repülőtéren (METAR és TAF jelentéseket).

A térképen piros és sárga pontok jelzik az elérhető meteorológiai állomásokat.

Mozgassa az egeret a pont fölött, hogy megjelenjen az állomás neve.

Azután kattintson az időjárási megfigyelések és előrejelzések megtekintéséhez.

A térkép megváltoztatása: kattintson a fekete keresztel jelölt zöld gombra ráközelítéshez, a vonallal jelölt zöld gombra távolításhoz, vagy a zöld nyilakra a szomszédos térképek eléréséhez.


METAR-TAF: